• Join FlightAware (Why Join?)
  • Login
  • US Flag 
09:26AM EST


 

Airport Tracker/Info


-or-


 

Live Flight TrackerFlight Track Log ✈ ASH3770 ✈ 04-Jul-2013 ✈ KORF - KIAD

Flight Track Log - Related Links

Times and Time Zones

All times are in EDT time to prevent confusion due to time zone crossing. See the ASH3770 flight status page for this flight to view local times or setup timezone preferences in your user account.

Time Position Orientation Groundspeed Altitude Reporting Facility
EDT Latitude Longitude Course Direction KTS MPH feet Rate Location/Type
05:33PM 36.8656 -76.2825 250° West 170 196 4,100  Level Washington Center
05:34PM 36.9108 -76.3608 306° West 206 237 7,400 3,240 Climbing Washington Center
05:35PM 37.0921 -76.6160 300° West  Level FlightAware Approximate
05:35PM 36.9583 -76.4419 306° West 242 278 10,700  Level Washington Center
05:36PM 37.1412 -76.7238 300° West  Level FlightAware Approximate
05:36PM 37.0161 -76.5439 305° West 307 353 13,900  Level Washington Center
05:37PM 37.1917 -76.8306 307° West  Level FlightAware Approximate
05:37PM 37.0736 -76.6489 304° West 344 396 14,000  Level Washington Center
05:38PM 37.1331 -76.7564 305° West 370 426 14,000  Level Washington Center
05:39PM 37.1967 -76.8694 305° West 389 448 14,000  Level Washington Center
05:40PM 37.2558 -76.9853 303° West 396 456 14,000  Level Washington Center
05:41PM 37.3150 -77.0881 306° West 396 456 14,000  Level Washington Center
05:42PM 37.3908 -77.1917 313° West 402 463 14,000  Level Washington Center
05:43PM 37.4711 -77.2822 318° Northwest 397 457 14,000  Level Washington Center
05:44PM 37.5769 -77.3211 344° North 386 444 14,100  Climbing Washington Center
05:45PM 37.6914 -77.3264 358° North 386 444 14,100  Level Washington Center
05:46PM 37.8061 -77.3292 359° North 396 456 14,100  Level Washington Center
05:47PM 37.9208 -77.3317 359° North 396 456 14,100 -900 Level Washington Center
05:48PM 38.0314 -77.3369 358° North 402 463 12,300 -1,920 Descending Washington Center
05:49PM 38.1394 -77.3447 357° North 402 463 10,300 -1,140 Descending Washington Center
05:50PM 38.2353 -77.3522 356° North 373 429 10,100 -720 Descending Washington Center
05:51PM 38.3189 -77.3542 359° North 331 381 8,900 -1,200 Descending Washington Center
05:52PM 38.4042 -77.3589 358° North 308 354 7,700 -1,320 Descending Washington Center
05:53PM 38.4856 -77.3608 359° North 301 346 6,400 -1,320 Descending Washington Center
05:54PM 38.5689 -77.3656 357° North 291 335 5,200 -720 Descending Washington Center
05:55PM 38.6481 -77.3647 360° North 286 329 5,000 -480 Descending Washington Center
05:56PM 38.7378 -77.3589 North 286 329 4,300 -540 Descending Washington Center
05:57PM 38.8150 -77.3581 360° North 286 329 4,000 -180 Descending Washington Center
05:58PM 38.8942 -77.3547 North 291 335 4,000 -480 Level Washington Center
05:59PM 39.0000 -77.3500 North 284 327 3,000 -660 Descending Potomac TRACON
06:00PM 39.0667 -77.3500 360° North 236 272 2,500 -600 Descending Potomac TRACON
06:01PM 39.1000 -77.4167 303° West 219 252 1,800 -720 Descending Potomac TRACON